Time;durP1;ratioP1;P1;durP2;ratioP2;P2;SDS_P1;SDS_P2;PMS_P1;PMS_P2;Temp;Humidity;BMP_temperature;BMP_pressure;BME280_temperature;BME280_humidity;BME280_pressure;Samples;Min_cycle;Max_cycle;Signal;HPM_P1;HPM_P2
2024/01/29 00:01:08;;;;;;;17.42;10.30;;;;;;;1.37;100.00;101749.91;5024992;28;20041;-74
2024/01/29 00:03:37;;;;;;;21.60;11.38;;;;;;;1.35;100.00;101749.03;5019798;28;20049;-72
2024/01/29 00:06:06;;;;;;;20.40;11.30;;;;;;;1.32;100.00;101748.97;5034556;28;20069;-71
2024/01/29 00:08:37;;;;;;;18.77;11.15;;;;;;;1.25;100.00;101742.81;5021925;28;20051;-71
2024/01/29 00:11:07;;;;;;;18.75;11.90;;;;;;;1.25;100.00;101757.59;5040316;28;20057;-71
2024/01/29 00:13:35;;;;;;;15.90;9.10;;;;;;;1.21;100.00;101754.06;5037378;28;20052;-71
2024/01/29 00:16:06;;;;;;;22.25;12.77;;;;;;;1.11;100.00;101754.78;5025143;28;20133;-71
2024/01/29 00:18:36;;;;;;;20.23;12.57;;;;;;;1.08;100.00;101753.91;5032884;28;20347;-72
2024/01/29 00:21:05;;;;;;;25.65;13.82;;;;;;;1.00;100.00;101759.88;5018112;28;20049;-72
2024/01/29 00:23:35;;;;;;;23.20;14.27;;;;;;;0.91;100.00;101762.38;5027228;28;20049;-72
2024/01/29 00:26:05;;;;;;;24.75;14.48;;;;;;;0.71;100.00;101735.13;5015928;28;20128;-71
2024/01/29 00:28:33;;;;;;;26.75;15.15;;;;;;;0.79;100.00;101756.94;5025284;28;20041;-72
2024/01/29 00:31:05;;;;;;;24.13;14.30;;;;;;;0.72;100.00;101754.25;5027960;28;20418;-71
2024/01/29 00:33:33;;;;;;;23.88;14.05;;;;;;;0.65;100.00;101750.66;5034594;28;20128;-71
2024/01/29 00:36:06;;;;;;;26.00;14.77;;;;;;;0.61;100.00;101751.50;5022238;28;20060;-72
2024/01/29 00:38:35;;;;;;;27.23;15.55;;;;;;;0.57;100.00;101750.56;5034149;28;20052;-71
2024/01/29 00:41:06;;;;;;;23.73;15.00;;;;;;;0.54;100.00;101747.91;5038087;28;20050;-71
2024/01/29 00:43:35;;;;;;;28.20;15.40;;;;;;;0.52;100.00;101752.22;5039756;28;20054;-73
2024/01/29 00:46:04;;;;;;;25.75;14.73;;;;;;;0.51;100.00;101744.38;5021510;28;20553;-70
2024/01/29 00:48:32;;;;;;;25.88;15.10;;;;;;;0.51;100.00;101742.63;5025284;28;20961;-71
2024/01/29 00:51:04;;;;;;;24.27;15.23;;;;;;;0.41;100.00;101734.66;5028566;28;20417;-71
2024/01/29 00:53:32;;;;;;;24.17;14.85;;;;;;;0.42;100.00;101746.84;5025063;28;20049;-71
2024/01/29 00:56:02;;;;;;;29.38;15.23;;;;;;;0.26;100.00;101727.47;5019399;28;20561;-71
2024/01/29 00:58:33;;;;;;;25.73;14.60;;;;;;;0.41;100.00;101747.69;5027673;28;20076;-71
2024/01/29 01:01:06;;;;;;;25.35;15.05;;;;;;;0.47;100.00;101739.97;5027647;28;20055;-70
2024/01/29 01:03:35;;;;;;;24.90;14.70;;;;;;;0.46;100.00;101744.31;5024028;28;20331;-71
2024/01/29 01:06:04;;;;;;;25.13;13.85;;;;;;;0.44;100.00;101750.34;4982848;28;20212;-71
2024/01/29 01:08:32;;;;;;;20.83;13.00;;;;;;;0.40;100.00;101745.94;5023905;28;20072;-71
2024/01/29 01:11:00;;;;;;;22.20;14.77;;;;;;;0.40;100.00;101745.94;5037903;28;20037;-72
2024/01/29 01:13:31;;;;;;;22.55;14.13;;;;;;;0.42;100.00;101746.84;5021599;28;20050;-72
2024/01/29 01:16:04;;;;;;;24.80;14.02;;;;;;;0.44;100.00;101753.84;5017085;28;20351;-72
2024/01/29 01:18:33;;;;;;;20.98;13.63;;;;;;;0.37;100.00;101738.06;5024078;28;20043;-71
2024/01/29 01:21:04;;;;;;;20.52;13.88;;;;;;;0.45;100.00;101752.09;5023930;28;20053;-72
2024/01/29 01:23:34;;;;;;;24.30;15.05;;;;;;;0.46;100.00;101753.88;5024970;28;20046;-71
2024/01/29 01:26:02;;;;;;;25.90;15.33;;;;;;;0.43;100.00;101761.63;5016872;28;20172;-71
2024/01/29 01:28:35;;;;;;;22.38;14.07;;;;;;;0.42;100.00;101771.16;5041066;28;20033;-71
2024/01/29 01:31:10;;;;;;;;;;;;;;;0.39;100.00;101768.50;5033764;28;20136;-70
2024/01/29 01:33:42;;;;;;;23.40;14.57;;;;;;;0.33;100.00;101766.66;5045516;28;20361;-71
2024/01/29 01:36:11;;;;;;;22.30;14.27;;;;;;;0.31;100.00;101770.13;5032201;28;21216;-71
2024/01/29 01:38:39;;;;;;;24.23;14.50;;;;;;;0.27;100.00;101774.41;5042798;28;20734;-70
2024/01/29 01:41:10;;;;;;;;;;;;;;;0.24;100.00;101770.84;5041581;28;20154;-71
2024/01/29 01:43:39;;;;;;;23.67;14.32;;;;;;;0.26;100.00;101770.03;5020981;28;19935;-72
2024/01/29 01:46:20;;;;;;;22.67;14.15;;;;;;;0.16;100.00;101762.91;5016774;28;20340;-70
2024/01/29 01:48:52;;;;;;;23.17;13.90;;;;;;;0.25;100.00;101764.81;5042844;28;20060;-73
2024/01/29 01:51:21;;;;;;;22.48;14.13;;;;;;;0.21;100.00;101761.25;5044435;28;20136;-70
2024/01/29 01:53:54;;;;;;;28.40;15.13;;;;;;;0.18;100.00;101757.72;5024386;28;20140;-70
2024/01/29 01:56:25;;;;;;;23.23;14.18;;;;;;;0.18;100.00;101750.78;5018404;28;20057;-71
2024/01/29 01:58:57;;;;;;;23.30;14.70;;;;;;;0.15;100.00;101739.47;5037402;28;20485;-71
2024/01/29 02:01:28;;;;;;;22.95;14.05;;;;;;;0.15;100.00;101753.38;5039918;28;20158;-71
2024/01/29 02:03:57;;;;;;;21.02;13.45;;;;;;;-0.01;100.00;101735.72;5029831;28;20125;-70
2024/01/29 02:06:29;;;;;;;22.98;13.48;;;;;;;0.14;100.00;101761.16;5016467;28;20045;-73
2024/01/29 02:09:05;;;;;;;23.20;13.87;;;;;;;0.12;100.00;101761.13;5043883;28;20107;-71
2024/01/29 02:11:36;;;;;;;26.58;13.85;;;;;;;0.10;100.00;101757.59;5043565;28;21660;-72
2024/01/29 02:14:06;;;;;;;22.35;13.50;;;;;;;0.10;100.00;101757.59;5044026;28;20045;-71
2024/01/29 02:16:36;;;;;;;17.33;12.02;;;;;;;0.13;100.00;101756.78;5004179;28;20090;-71
2024/01/29 02:19:15;;;;;;;21.90;12.30;;;;;;;0.11;100.00;101758.47;5029577;28;20674;-70
2024/01/29 02:21:48;;;;;;;21.33;12.30;;;;;;;0.17;100.00;101763.78;5022996;28;20049;-72
2024/01/29 02:24:17;;;;;;;;;;;;;;;0.19;100.00;101773.38;5038909;28;20057;-71
2024/01/29 02:26:50;;;;;;;21.08;12.10;;;;;;;0.21;100.00;101773.41;5014566;28;19924;-71
2024/01/29 02:29:22;;;;;;;18.85;11.70;;;;;;;0.20;100.00;101764.72;5044319;28;20143;-70
2024/01/29 02:31:52;;;;;;;24.90;12.75;;;;;;;0.19;100.00;101756.88;5029015;28;20131;-71
2024/01/29 02:34:23;;;;;;;;;;;;;;;0.23;100.00;101759.56;5045513;28;20045;-72
2024/01/29 02:36:55;;;;;;;21.65;13.05;;;;;;;0.20;100.00;101750.81;5018732;28;19929;-71
2024/01/29 02:39:25;;;;;;;20.88;13.07;;;;;;;0.14;100.00;101750.72;5029080;28;20041;-70
2024/01/29 02:41:53;;;;;;;20.02;13.30;;;;;;;0.08;100.00;101745.41;5012476;28;20532;-71
2024/01/29 02:44:24;;;;;;;20.25;12.82;;;;;;;0.07;100.00;101743.66;5028820;28;20045;-72
2024/01/29 02:46:52;;;;;;;;;;;;;;;0.14;100.00;101751.59;5021924;28;20045;-71
2024/01/29 02:49:20;;;;;;;23.90;12.45;;;;;;;0.01;100.00;101723.56;5033053;28;20285;-70
2024/01/29 02:51:50;;;;;;;20.83;12.90;;;;;;;0.13;100.00;101744.63;5027583;28;20519;-71
2024/01/29 02:54:18;;;;;;;23.13;13.23;;;;;;;0.01;100.00;101728.78;5027398;28;20137;-71
2024/01/29 02:56:47;;;;;;;22.58;13.18;;;;;;;0.11;100.00;101754.16;5024276;28;20041;-71
2024/01/29 02:59:15;;;;;;;19.60;12.00;;;;;;;0.11;100.00;101751.53;5047155;28;20046;-71
2024/01/29 03:01:47;;;;;;;23.17;13.23;;;;;;;0.16;100.00;101760.28;5026438;28;20045;-71
2024/01/29 03:04:19;;;;;;;18.42;12.70;;;;;;;0.14;100.00;101756.81;5029664;28;20160;-70
2024/01/29 03:06:52;;;;;;;22.30;12.32;;;;;;;0.12;100.00;101750.69;5025407;28;20048;-71
2024/01/29 03:09:23;;;;;;;20.05;12.25;;;;;;;0.06;100.00;101736.69;5030060;28;20319;-71
2024/01/29 03:11:56;;;;;;;21.48;12.32;;;;;;;0.19;100.00;101756.88;5045260;28;20050;-71
2024/01/29 03:14:24;;;;;;;21.85;12.48;;;;;;;0.18;100.00;101761.19;5043974;28;20056;-71
2024/01/29 03:16:53;;;;;;;20.83;12.70;;;;;;;0.12;100.00;101753.31;5036811;28;20045;-70
2024/01/29 03:19:22;;;;;;;20.50;12.52;;;;;;;0.13;100.00;101755.06;5030546;28;20041;-71
2024/01/29 03:21:55;;;;;;;20.80;12.15;;;;;;;0.16;100.00;101757.69;5045567;28;20050;-71
2024/01/29 03:24:25;;;;;;;20.95;12.18;;;;;;;0.17;100.00;101758.56;5008420;28;20049;-71
2024/01/29 03:26:54;;;;;;;18.80;12.85;;;;;;;0.00;100.00;101727.06;5003880;28;20033;-71
2024/01/29 03:29:25;;;;;;;19.23;12.05;;;;;;;0.13;100.00;101747.25;5011916;28;20482;-72
2024/01/29 03:31:54;;;;;;;18.70;11.88;;;;;;;0.09;100.00;101735.00;5024839;28;20041;-71
2024/01/29 03:34:27;;;;;;;19.27;11.43;;;;;;;0.16;100.00;101749.88;5035239;28;20072;-73
2024/01/29 03:36:55;;;;;;;18.42;11.95;;;;;;;0.16;100.00;101744.66;5002106;28;20041;-72
2024/01/29 03:39:24;;;;;;;18.42;11.35;;;;;;;0.14;100.00;101735.09;5038767;28;20049;-72
2024/01/29 03:41:56;;;;;;;15.73;9.98;;;;;;;0.15;100.00;101729.91;5019610;28;20045;-71
2024/01/29 03:44:26;;;;;;;22.05;11.68;;;;;;;0.20;100.00;101740.41;5030660;28;20041;-71
2024/01/29 03:46:54;;;;;;;17.87;11.23;;;;;;;0.23;100.00;101738.72;5029830;28;20072;-71
2024/01/29 03:49:25;;;;;;;17.38;10.25;;;;;;;0.26;100.00;101740.50;5034137;28;20067;-72
2024/01/29 03:51:55;;;;;;;15.57;10.20;;;;;;;0.28;100.00;101746.63;5026706;28;20050;-73
2024/01/29 03:54:23;;;;;;;19.20;11.50;;;;;;;0.28;100.00;101741.41;5028136;28;20071;-72
2024/01/29 03:56:52;;;;;;;17.85;10.30;;;;;;;0.21;100.00;101729.13;5014824;28;20113;-72
2024/01/29 03:59:27;;;;;;;21.23;11.68;;;;;;;0.22;100.00;101731.75;5018453;28;20493;-71
2024/01/29 04:01:57;;;;;;;16.38;10.77;;;;;;;0.21;100.00;101735.22;5042710;28;21054;-72
2024/01/29 04:04:25;;;;;;;18.57;11.07;;;;;;;0.17;100.00;101730.78;5038147;28;20115;-72
2024/01/29 04:06:55;;;;;;;16.15;10.98;;;;;;;0.20;100.00;101732.56;5001051;28;20177;-72
2024/01/29 04:09:26;;;;;;;18.15;11.82;;;;;;;0.13;100.00;101720.31;5028040;28;20052;-71
2024/01/29 04:11:55;;;;;;;18.45;11.50;;;;;;;0.11;100.00;101719.41;5022650;28;20057;-71
2024/01/29 04:14:25;;;;;;;20.98;12.05;;;;;;;0.07;100.00;101721.09;5023569;28;20044;-71
2024/01/29 04:16:55;;;;;;;20.45;12.75;;;;;;;0.06;100.00;101727.13;4986031;28;20052;-70
2024/01/29 04:19:23;;;;;;;18.88;11.70;;;;;;;-0.02;100.00;101713.13;5033050;28;20140;-72
2024/01/29 04:21:52;;;;;;;19.95;12.93;;;;;;;-0.03;100.00;101717.47;5009750;28;20049;-70
2024/01/29 04:24:20;;;;;;;19.20;13.38;;;;;;;-0.08;100.00;101713.00;5016312;28;20056;-73
2024/01/29 04:26:49;;;;;;;24.13;13.63;;;;;;;-0.09;100.00;101719.06;5027307;28;20602;-71
2024/01/29 04:29:21;;;;;;;21.27;13.77;;;;;;;-0.10;100.00;101712.09;5020817;28;20041;-71
2024/01/29 04:31:51;;;;;;;23.13;13.90;;;;;;;-0.06;100.00;101713.91;5026142;28;20576;-71
2024/01/29 04:34:19;;;;;;;24.33;14.13;;;;;;;-0.12;100.00;101716.41;5029473;28;20553;-71
2024/01/29 04:36:52;;;;;;;19.88;13.70;;;;;;;-0.18;100.00;101714.59;5031996;28;20045;-72
2024/01/29 04:39:25;;;;;;;24.08;13.68;;;;;;;-0.20;100.00;101718.88;5026918;28;20052;-71
2024/01/29 04:41:54;;;;;;;27.85;15.15;;;;;;;-0.25;100.00;101712.72;5028264;28;20056;-71
2024/01/29 04:44:26;;;;;;;21.10;13.90;;;;;;;-0.22;100.00;101733.59;5045432;28;20041;-71
2024/01/29 04:46:56;;;;;;;19.77;13.52;;;;;;;-0.23;100.00;101724.03;5050001;28;20041;-71
2024/01/29 04:49:23;;;;;;;24.47;14.27;;;;;;;-0.25;100.00;101725.72;5035878;28;20042;-72
2024/01/29 04:51:53;;;;;;;21.98;13.77;;;;;;;-0.28;100.00;101730.88;5035418;28;20667;-71
2024/01/29 04:54:21;;;;;;;22.10;13.48;;;;;;;-0.32;100.00;101723.00;5039761;28;20041;-72
2024/01/29 04:56:50;;;;;;;24.27;13.90;;;;;;;-0.27;100.00;101732.63;5022808;28;20089;-71
2024/01/29 04:59:23;;;;;;;20.85;13.27;;;;;;;-0.26;100.00;101731.78;5045494;28;20121;-73
2024/01/29 05:01:55;;;;;;;23.63;12.93;;;;;;;-0.23;100.00;101730.97;5035877;28;20527;-70
2024/01/29 05:04:26;;;;;;;19.80;13.07;;;;;;;-0.20;100.00;101726.69;5033459;28;20559;-70
2024/01/29 05:07:00;;;;;;;20.63;12.48;;;;;;;-0.20;100.00;101723.22;5029968;28;20046;-70
2024/01/29 05:09:29;;;;;;;22.45;12.52;;;;;;;-0.15;100.00;101726.75;5031378;28;20072;-69
2024/01/29 05:11:59;;;;;;;19.43;13.50;;;;;;;-0.25;100.00;101710.09;5046610;28;20056;-71
2024/01/29 05:14:29;;;;;;;22.85;13.65;;;;;;;-0.22;100.00;101723.19;5027856;28;20106;-71
2024/01/29 05:17:01;;;;;;;21.60;13.07;;;;;;;-0.18;100.00;101724.13;5039581;28;20071;-70
2024/01/29 05:19:33;;;;;;;21.98;12.85;;;;;;;-0.17;100.00;101724.16;5021233;28;20054;-71
2024/01/29 05:22:01;;;;;;;20.67;13.10;;;;;;;-0.15;100.00;101725.03;5025795;28;20049;-71
2024/01/29 05:24:30;;;;;;;19.65;12.23;;;;;;;-0.14;100.00;101723.31;5041800;28;20133;-71
2024/01/29 05:26:59;;;;;;;22.98;13.63;;;;;;;-0.13;100.00;101728.53;5029540;28;20041;-72
2024/01/29 05:29:27;;;;;;;18.42;12.48;;;;;;;-0.15;100.00;101726.75;5035377;28;20038;-71
2024/01/29 05:31:57;;;;;;;19.35;12.65;;;;;;;-0.11;100.00;101725.97;5029912;28;21065;-71
2024/01/29 05:34:25;;;;;;;20.70;12.68;;;;;;;-0.09;100.00;101721.66;5025190;28;20045;-70
2024/01/29 05:36:55;;;;;;;17.83;11.20;;;;;;;-0.15;100.00;101712.00;5018842;28;20045;-70
2024/01/29 05:39:24;;;;;;;19.10;11.95;;;;;;;-0.02;100.00;101727.03;5000381;28;20037;-71
2024/01/29 05:41:54;;;;;;;19.90;12.93;;;;;;;-0.02;100.00;101711.41;5032822;28;20041;-70
2024/01/29 05:44:22;;;;;;;22.20;13.20;;;;;;;0.00;100.00;101719.25;5027436;28;20061;-72
2024/01/29 05:46:51;;;;;;;23.45;13.50;;;;;;;-0.02;100.00;101719.22;5028759;28;20049;-70
2024/01/29 05:49:22;;;;;;;19.92;13.55;;;;;;;-0.05;100.00;101720.88;5020306;28;20549;-73
2024/01/29 05:51:52;;;;;;;18.77;12.70;;;;;;;-0.11;100.00;101716.44;5024710;28;20045;-71
2024/01/29 05:54:25;;;;;;;20.17;13.32;;;;;;;-0.10;100.00;101725.13;5025389;28;20140;-72
2024/01/29 05:56:56;;;;;;;20.67;12.30;;;;;;;-0.20;100.00;101723.22;5039164;28;20529;-72
2024/01/29 05:59:26;;;;;;;18.17;12.00;;;;;;;-0.18;100.00;101727.59;5013655;28;20688;-70
2024/01/29 06:01:54;;;;;;;18.52;12.27;;;;;;;-0.17;100.00;101737.16;5037651;28;20042;-71
2024/01/29 06:04:22;;;;;;;20.40;12.52;;;;;;;-0.25;100.00;101725.72;5026939;28;20052;-71
2024/01/29 06:06:51;;;;;;;18.67;12.20;;;;;;;-0.21;100.00;101739.69;5040850;28;20049;-71
2024/01/29 06:09:23;;;;;;;17.20;11.38;;;;;;;-0.20;100.00;101747.53;5037999;28;21148;-70
2024/01/29 06:11:51;;;;;;;18.65;11.55;;;;;;;-0.25;100.00;101737.88;5024158;28;20049;-71
2024/01/29 06:14:19;;;;;;;19.90;11.95;;;;;;;-0.28;100.00;101733.47;5046635;28;20103;-70
2024/01/29 06:16:48;;;;;;;19.05;12.43;;;;;;;-0.26;100.00;101741.31;5036701;28;20050;-71
2024/01/29 06:19:18;;;;;;;22.77;12.60;;;;;;;-0.30;100.00;101740.38;5042531;28;20053;-71
2024/01/29 06:21:47;;;;;;;20.85;12.40;;;;;;;-0.27;100.00;101744.75;5036726;28;20071;-71
2024/01/29 06:24:16;;;;;;;20.08;12.45;;;;;;;-0.30;100.00;101745.56;5039473;28;20037;-71
2024/01/29 06:26:50;;;;;;;20.90;12.60;;;;;;;-0.33;100.00;101740.34;5052432;28;20042;-71
2024/01/29 06:29:21;;;;;;;22.33;12.27;;;;;;;-0.35;100.00;101736.81;5030100;28;20471;-74
2024/01/29 06:31:49;;;;;;;22.17;12.35;;;;;;;-0.30;100.00;101750.78;5045245;28;20113;-70
2024/01/29 06:34:23;;;;;;;19.27;12.30;;;;;;;-0.29;100.00;101764.69;5055488;28;20049;-73
2024/01/29 06:36:53;;;;;;;19.80;11.73;;;;;;;-0.36;100.00;101753.28;5016685;28;20037;-71
2024/01/29 06:39:22;;;;;;;18.13;11.60;;;;;;;-0.26;100.00;101772.53;5009408;28;20042;-70
2024/01/29 06:41:52;;;;;;;19.98;12.10;;;;;;;-0.26;100.00;101776.03;5034752;28;20117;-70
2024/01/29 06:44:23;;;;;;;14.63;8.63;;;;;;;-0.30;100.00;101768.13;5029579;28;20099;-71
2024/01/29 06:46:53;;;;;;;19.83;11.68;;;;;;;-0.33;100.00;101776.78;5040725;28;20065;-71
2024/01/29 06:49:30;;;;;;;20.08;12.52;;;;;;;-0.33;100.00;101775.91;5022075;28;20038;-71
2024/01/29 06:51:59;;;;;;;18.30;11.48;;;;;;;-0.28;100.00;101787.25;5028449;28;20037;-72
2024/01/29 06:54:33;;;;;;;19.38;11.38;;;;;;;-0.26;100.00;101782.97;5050772;28;20456;-72
2024/01/29 06:57:05;;;;;;;19.90;11.35;;;;;;;-0.30;100.00;101779.41;5030751;28;20077;-72
2024/01/29 06:59:39;;;;;;;16.90;11.40;;;;;;;-0.21;100.00;101789.16;5020487;28;20038;-72
2024/01/29 07:02:08;;;;;;;20.33;12.00;;;;;;;-0.20;100.00;101783.09;5037137;28;20436;-72
2024/01/29 07:04:38;;;;;;;18.58;10.70;;;;;;;-0.10;100.00;101792.81;5039407;28;20049;-71
2024/01/29 07:07:07;;;;;;;21.20;11.70;;;;;;;-0.05;100.00;101793.78;5047971;28;20051;-71
2024/01/29 07:09:36;;;;;;;18.13;11.05;;;;;;;-0.09;100.00;101782.44;5035783;28;20061;-71
2024/01/29 07:12:08;;;;;;;18.75;10.95;;;;;;;0.06;100.00;101800.06;5020449;28;20053;-72
2024/01/29 07:14:36;;;;;;;19.48;11.98;;;;;;;0.11;100.00;101803.63;5039948;28;20716;-72
2024/01/29 07:17:11;;;;;;;21.73;11.40;;;;;;;0.12;100.00;101799.31;5042712;28;20572;-71
2024/01/29 07:19:42;;;;;;;21.50;11.50;;;;;;;0.22;100.00;101806.44;5027560;28;20106;-71
2024/01/29 07:22:18;;;;;;;18.30;11.07;;;;;;;0.20;100.00;101805.50;5023729;28;20049;-72
2024/01/29 07:24:48;;;;;;;19.77;11.32;;;;;;;0.25;100.00;101809.09;5029825;28;20605;-72
2024/01/29 07:27:23;;;;;;;18.63;11.98;;;;;;;0.22;100.00;101820.31;5037641;28;20083;-71
2024/01/29 07:29:51;;;;;;;23.58;11.35;;;;;;;0.31;100.00;101819.63;5017078;28;20049;-71
2024/01/29 07:32:23;;;;;;;20.67;11.43;;;;;;;0.34;100.00;101820.53;5029148;28;20056;-71
2024/01/29 07:34:51;;;;;;;17.33;11.05;;;;;;;0.39;100.00;101819.75;5021728;28;20710;-71
2024/01/29 07:37:20;;;;;;;18.58;10.95;;;;;;;0.50;100.00;101831.22;5030781;28;20060;-72
2024/01/29 07:39:49;;;;;;;19.83;11.02;;;;;;;0.50;100.00;101821.66;5016752;28;20099;-73
2024/01/29 07:42:23;;;;;;;20.73;11.60;;;;;;;0.66;100.00;101833.22;5025943;28;20045;-71
2024/01/29 07:44:55;;;;;;;19.13;10.73;;;;;;;0.72;100.00;101822.91;5028633;28;20093;-72
2024/01/29 07:47:23;;;;;;;20.75;11.45;;;;;;;0.89;100.00;101831.88;5028230;28;20130;-71
2024/01/29 07:49:52;;;;;;;21.85;11.68;;;;;;;1.04;100.00;101832.09;5018713;28;20060;-72
2024/01/29 07:52:21;;;;;;;21.30;11.15;;;;;;;1.20;100.00;101829.72;5025308;28;20450;-70
2024/01/29 07:54:49;;;;;;;20.63;11.75;;;;;;;1.40;100.00;101836.97;5024735;28;20123;-72
2024/01/29 07:57:19;;;;;;;21.58;12.00;;;;;;;1.50;100.00;101810.97;5024944;28;20052;-72
2024/01/29 07:59:47;;;;;;;21.25;11.65;;;;;;;1.72;100.00;101821.72;5034307;28;20148;-71
2024/01/29 08:02:16;;;;;;;19.70;11.57;;;;;;;1.79;100.00;101806.09;5038899;28;20042;-72
2024/01/29 08:04:47;;;;;;;25.25;11.70;;;;;;;2.09;100.00;101836.03;5027730;28;20818;-72
2024/01/29 08:07:17;;;;;;;28.70;12.02;;;;;;;2.18;100.00;101850.97;5020508;28;20069;-72
2024/01/29 08:09:48;;;;;;;26.00;11.38;;;;;;;2.23;100.00;101846.63;5034027;28;20061;-72
2024/01/29 08:12:16;;;;;;;21.15;11.10;;;;;;;2.32;100.00;101849.34;5026347;28;20049;-72
2024/01/29 08:14:48;;;;;;;21.88;10.63;;;;;;;2.46;100.00;101839.91;5021009;28;20046;-73
2024/01/29 08:17:17;;;;;;;20.40;10.27;;;;;;;2.67;100.00;101833.13;5017909;28;20057;-70
2024/01/29 08:19:47;;;;;;;21.42;10.85;;;;;;;2.97;100.00;101843.81;5025349;28;20524;-72
2024/01/29 08:22:19;;;;;;;16.67;10.45;;;;;;;3.16;100.00;101832.59;5040643;28;20037;-72
2024/01/29 08:24:51;;;;;;;20.73;11.02;;;;;;;3.34;100.00;101849.25;5025049;28;20056;-73
2024/01/29 08:27:22;;;;;;;20.00;11.65;;;;;;;3.43;100.00;101841.47;5033122;28;20049;-71
2024/01/29 08:29:54;;;;;;;20.73;10.97;;;;;;;3.46;100.00;101836.28;5034201;28;20165;-73
2024/01/29 08:32:23;;;;;;;20.15;10.82;;;;;;;3.51;100.00;101842.38;5025451;28;20456;-72
2024/01/29 08:34:52;;;;;;;19.98;12.18;;;;;;;3.50;100.00;101827.53;5023646;28;20111;-72
2024/01/29 08:37:21;;;;;;;22.65;11.93;;;;;;;3.55;100.00;101835.41;5030566;28;20153;-72
2024/01/29 08:39:49;;;;;;;21.15;12.38;;;;;;;3.59;100.00;101835.44;5033899;28;20113;-72
2024/01/29 08:42:18;;;;;;;18.25;12.45;;;;;;;3.64;100.00;101824.97;5042972;28;20041;-72
2024/01/29 08:44:56;;;;;;;21.90;12.15;;;;;;;3.73;100.00;101835.50;5031570;28;20471;-73
2024/01/29 08:47:26;;;;;;;20.80;12.70;;;;;;;3.82;100.00;101836.41;5027381;28;20057;-73
2024/01/29 08:49:55;;;;;;;24.25;13.43;;;;;;;3.85;100.00;101830.31;5017137;28;20052;-72
2024/01/29 08:52:26;;;;;;;20.20;13.48;;;;;;;3.94;100.00;101845.16;5045400;28;20128;-71
2024/01/29 08:55:00;;;;;;;22.98;13.32;;;;;;;3.99;100.00;101835.59;5030768;28;20438;-71
2024/01/29 08:57:29;;;;;;;24.63;14.13;;;;;;;4.05;100.00;101848.72;5041520;28;20049;-72
2024/01/29 08:59:58;;;;;;;22.45;14.20;;;;;;;4.20;100.00;101843.50;5033933;28;20045;-73
2024/01/29 09:02:31;;;;;;;19.58;13.85;;;;;;;4.28;100.00;101833.03;5029510;28;20087;-71
2024/01/29 09:05:02;;;;;;;19.55;13.82;;;;;;;4.28;100.00;101838.28;5009983;28;20503;-71
2024/01/29 09:07:31;;;;;;;24.70;14.52;;;;;;;4.26;100.00;101842.63;5045917;28;20097;-72
2024/01/29 09:09:59;;;;;;;24.77;14.25;;;;;;;4.29;100.00;101838.28;5022153;28;20133;-72
2024/01/29 09:12:29;;;;;;;21.88;13.70;;;;;;;4.46;100.00;101847.03;5007097;28;20092;-72
2024/01/29 09:14:59;;;;;;;20.90;13.98;;;;;;;4.59;100.00;101842.69;5038176;28;20046;-72
2024/01/29 09:17:31;;;;;;;22.02;13.98;;;;;;;4.74;100.00;101849.69;5024237;28;20053;-73
2024/01/29 09:20:09;;;;;;;25.45;14.50;;;;;;;4.83;100.00;101845.31;5032719;28;20148;-73
2024/01/29 09:22:36;;;;;;;21.30;14.32;;;;;;;4.85;100.00;101850.56;5047502;28;20341;-72
2024/01/29 09:25:08;;;;;;;20.83;14.82;;;;;;;4.89;100.00;101841.78;5021305;28;20048;-72
2024/01/29 09:27:39;;;;;;;23.60;14.65;;;;;;;4.88;100.00;101840.91;5036983;28;20046;-72
2024/01/29 09:30:11;;;;;;;21.05;14.43;;;;;;;4.91;100.00;101837.44;5045306;28;20029;-73
2024/01/29 09:32:41;;;;;;;22.52;14.82;;;;;;;5.07;100.00;101849.66;5030071;28;20114;-73
2024/01/29 09:35:15;;;;;;;21.88;14.20;;;;;;;5.15;100.00;101850.53;5036794;28;20045;-73
2024/01/29 09:37:44;;;;;;;25.40;15.00;;;;;;;5.40;100.00;101853.97;5027259;28;20083;-75
2024/01/29 09:40:13;;;;;;;22.83;14.75;;;;;;;5.41;100.00;101849.59;5024559;28;20396;-73
2024/01/29 09:42:54;;;;;;;22.70;14.80;;;;;;;5.42;100.00;101840.84;5029901;28;20586;-72
2024/01/29 09:45:23;;;;;;;23.08;15.02;;;;;;;5.29;100.00;101838.25;5045243;28;20060;-72
2024/01/29 09:47:57;;;;;;;22.70;15.18;;;;;;;5.05;100.00;101850.53;5046076;28;20073;-72
2024/01/29 09:50:29;;;;;;;25.30;16.35;;;;;;;4.83;100.00;101842.69;5039136;28;20144;-71
2024/01/29 09:52:59;;;;;;;24.20;14.70;;;;;;;4.88;100.00;101850.53;5049472;28;20049;-72
2024/01/29 09:55:29;;;;;;;23.83;16.15;;;;;;;4.80;100.00;101842.69;5033186;28;20057;-72
2024/01/29 09:57:58;;;;;;;23.33;15.57;;;;;;;4.86;100.00;101865.44;5038184;28;20076;-73
2024/01/29 10:00:28;;;;;;;;;;;;;;;4.84;100.00;101867.19;5024464;28;20048;-72
2024/01/29 10:03:07;;;;;;;26.08;16.33;;;;;;;4.85;100.00;101861.94;5032188;28;19925;-73
2024/01/29 10:05:38;;;;;;;23.15;15.32;;;;;;;4.83;100.00;101842.69;5043380;28;20053;-72
2024/01/29 10:08:09;;;;;;;25.27;16.08;;;;;;;5.11;100.00;101861.91;5026619;28;20037;-71
2024/01/29 10:10:39;;;;;;;22.20;15.93;;;;;;;5.19;100.00;101862.81;5030160;28;20056;-72
2024/01/29 10:13:09;;;;;;;21.13;15.20;;;;;;;5.12;100.00;101866.28;5005424;28;20045;-72
2024/01/29 10:15:38;;;;;;;21.60;15.23;;;;;;;5.09;100.00;101862.78;5032650;28;20065;-72
2024/01/29 10:18:18;;;;;;;23.13;16.83;;;;;;;5.15;100.00;101873.31;5037583;28;20057;-73
2024/01/29 10:20:49;;;;;;;25.85;17.08;;;;;;;5.23;100.00;101864.53;5019001;28;20042;-73
2024/01/29 10:23:20;;;;;;;24.55;16.98;;;;;;;5.34;100.00;101863.66;5028335;28;20073;-72
2024/01/29 10:25:56;;;;;;;24.42;16.60;;;;;;;5.40;100.00;101858.34;5043716;28;20049;-73
2024/01/29 10:28:26;;;;;;;25.33;17.65;;;;;;;5.38;100.00;101849.59;5030691;28;20053;-71
2024/01/29 10:30:58;;;;;;;28.70;18.23;;;;;;;5.25;100.00;101812.88;5013126;28;20604;-75
2024/01/29 10:33:33;;;;;;;25.27;17.23;;;;;;;5.59;100.00;101850.44;5005241;28;20042;-74
2024/01/29 10:36:11;;;;;;;25.25;17.10;;;;;;;5.73;100.00;101842.50;5042661;28;22163;-75
2024/01/29 10:38:46;;;;;;;25.20;16.33;;;;;;;5.88;100.00;101838.91;5033704;28;20053;-74
2024/01/29 10:41:17;;;;;;;25.50;17.08;;;;;;;5.98;100.00;101846.78;5016262;28;20111;-73
2024/01/29 10:43:47;;;;;;;23.73;17.25;;;;;;;6.23;100.00;101839.63;5038006;28;20053;-74
2024/01/29 10:46:18;;;;;;;;;;;;;;;6.33;100.00;101837.81;5039992;28;20049;-75
2024/01/29 10:48:49;;;;;;;23.23;15.75;;;;;;;6.52;100.00;101831.53;5031866;28;19920;-72
2024/01/29 10:51:20;;;;;;;24.10;15.48;;;;;;;6.77;100.00;101834.00;5033286;28;20148;-73
2024/01/29 10:53:50;;;;;;;21.90;15.38;;;;;;;6.76;100.00;101838.38;5022860;28;20052;-73
2024/01/29 10:56:20;;;;;;;21.55;14.85;;;;;;;6.81;100.00;101841.84;5049611;28;20079;-73
2024/01/29 10:58:53;;;;;;;18.83;13.65;;;;;;;6.94;100.00;101842.59;5014873;28;20104;-74
2024/01/29 11:01:22;;;;;;;21.60;14.25;;;;;;;6.97;100.00;101832.03;5028775;28;20143;-73
2024/01/29 11:03:57;;;;;;;19.75;13.90;;;;;;;6.93;100.00;101844.34;5018800;28;20049;-73
2024/01/29 11:06:38;;;;;;;21.55;13.93;;;;;;;6.91;100.00;101826.84;5034515;28;20072;-77
2024/01/29 11:09:15;;;;;;;20.98;14.27;;;;;;;7.14;100.00;101838.03;5025314;28;20077;-74
2024/01/29 11:11:46;;;;;;;22.40;13.73;;;;;;;7.32;100.00;101829.94;5026614;28;20037;-73
2024/01/29 11:14:19;;;;;;;20.33;13.10;;;;;;;7.45;100.00;101832.44;5031669;28;20117;-74
2024/01/29 11:16:51;;;;;;;21.02;12.93;;;;;;;7.36;100.00;101818.47;5031367;28;20137;-73
2024/01/29 11:19:26;;;;;;;19.77;13.70;;;;;;;7.28;100.00;101817.66;5024785;28;20064;-73
2024/01/29 11:22:02;;;;;;;17.42;13.77;;;;;;;7.27;100.00;101823.81;5040244;28;20132;-73
2024/01/29 11:24:33;;;;;;;21.60;13.95;;;;;;;7.26;100.00;101808.91;5034999;28;20125;-75